sensor_id;sensor_type;location;lat;lon;timestamp;pressure;altitude;pressure_sealevel;temperature;humidity
28927;BME280;16038;47.692;9.400;2023-01-28T00:02:15;96963.41;;;-1.86;100.00
28927;BME280;16038;47.692;9.400;2023-01-28T00:04:40;96962.41;;;-2.00;100.00
28927;BME280;16038;47.692;9.400;2023-01-28T00:07:05;96968.59;;;-2.00;100.00
28927;BME280;16038;47.692;9.400;2023-01-28T00:09:31;96966.06;;;-1.86;100.00
28927;BME280;16038;47.692;9.400;2023-01-28T00:11:56;96960.09;;;-1.73;100.00
28927;BME280;16038;47.692;9.400;2023-01-28T00:14:23;96964.16;;;-1.80;100.00
28927;BME280;16038;47.692;9.400;2023-01-28T00:16:48;96959.22;;;-2.02;100.00
28927;BME280;16038;47.692;9.400;2023-01-28T00:19:13;96961.22;;;-1.84;100.00
28927;BME280;16038;47.692;9.400;2023-01-28T00:21:38;96964.22;;;-1.85;100.00
28927;BME280;16038;47.692;9.400;2023-01-28T00:24:04;96958.38;;;-1.93;100.00
28927;BME280;16038;47.692;9.400;2023-01-28T00:26:31;96952.56;;;-2.10;100.00
28927;BME280;16038;47.692;9.400;2023-01-28T00:28:56;96956.84;;;-2.09;100.00
28927;BME280;16038;47.692;9.400;2023-01-28T00:31:22;96963.19;;;-1.95;100.00
28927;BME280;16038;47.692;9.400;2023-01-28T00:33:49;96958.88;;;-1.90;100.00
28927;BME280;16038;47.692;9.400;2023-01-28T00:36:15;96955.44;;;-1.96;100.00
28927;BME280;16038;47.692;9.400;2023-01-28T00:38:41;96953.06;;;-2.03;100.00
28927;BME280;16038;47.692;9.400;2023-01-28T00:43:31;96960.19;;;-1.88;100.00
28927;BME280;16038;47.692;9.400;2023-01-28T00:45:57;96962.66;;;-1.97;100.00
28927;BME280;16038;47.692;9.400;2023-01-28T00:48:22;96956.22;;;-1.96;100.00
28927;BME280;16038;47.692;9.400;2023-01-28T00:50:47;96969.50;;;-1.75;100.00
28927;BME280;16038;47.692;9.400;2023-01-28T00:53:13;96976.41;;;-1.64;100.00
28927;BME280;16038;47.692;9.400;2023-01-28T00:55:38;96969.75;;;-1.77;100.00
28927;BME280;16038;47.692;9.400;2023-01-28T00:58:03;96971.44;;;-1.86;100.00
28927;BME280;16038;47.692;9.400;2023-01-28T01:00:29;96961.53;;;-1.85;100.00
28927;BME280;16038;47.692;9.400;2023-01-28T01:02:54;96968.19;;;-1.78;100.00
28927;BME280;16038;47.692;9.400;2023-01-28T01:05:19;96961.09;;;-1.63;100.00
28927;BME280;16038;47.692;9.400;2023-01-28T01:07:44;96966.47;;;-1.34;100.00
28927;BME280;16038;47.692;9.400;2023-01-28T01:10:11;96965.19;;;-1.42;100.00
28927;BME280;16038;47.692;9.400;2023-01-28T01:12:37;96963.06;;;-1.45;100.00
28927;BME280;16038;47.692;9.400;2023-01-28T01:15:03;96973.47;;;-1.33;100.00
28927;BME280;16038;47.692;9.400;2023-01-28T01:17:29;96970.94;;;-1.54;100.00
28927;BME280;16038;47.692;9.400;2023-01-28T01:19:55;96963.28;;;-1.70;100.00
28927;BME280;16038;47.692;9.400;2023-01-28T01:22:20;96965.09;;;-1.61;100.00
28927;BME280;16038;47.692;9.400;2023-01-28T01:24:46;96966.19;;;-1.62;100.00
28927;BME280;16038;47.692;9.400;2023-01-28T01:27:11;96966.22;;;-1.67;100.00
28927;BME280;16038;47.692;9.400;2023-01-28T01:29:37;96965.78;;;-1.50;100.00
28927;BME280;16038;47.692;9.400;2023-01-28T01:32:03;96966.28;;;-1.43;100.00
28927;BME280;16038;47.692;9.400;2023-01-28T01:34:28;96973.25;;;-1.42;100.00
28927;BME280;16038;47.692;9.400;2023-01-28T01:36:53;96979.66;;;-1.67;100.00
28927;BME280;16038;47.692;9.400;2023-01-28T01:39:18;96974.81;;;-1.70;100.00
28927;BME280;16038;47.692;9.400;2023-01-28T01:41:44;96975.47;;;-1.83;100.00
28927;BME280;16038;47.692;9.400;2023-01-28T01:46:53;96980.38;;;-1.96;100.00
28927;BME280;16038;47.692;9.400;2023-01-28T01:49:21;96978.78;;;-1.97;100.00
28927;BME280;16038;47.692;9.400;2023-01-28T01:51:54;96978.53;;;-2.00;100.00
28927;BME280;16038;47.692;9.400;2023-01-28T01:54:22;96977.94;;;-1.92;100.00
28927;BME280;16038;47.692;9.400;2023-01-28T01:56:50;96979.50;;;-1.86;100.00
28927;BME280;16038;47.692;9.400;2023-01-28T01:59:20;96980.22;;;-1.75;100.00
28927;BME280;16038;47.692;9.400;2023-01-28T02:01:47;96988.22;;;-1.65;100.00
28927;BME280;16038;47.692;9.400;2023-01-28T02:04:24;96978.31;;;-1.69;100.00
28927;BME280;16038;47.692;9.400;2023-01-28T02:06:51;96985.72;;;-1.90;100.00
28927;BME280;16038;47.692;9.400;2023-01-28T02:09:26;96983.59;;;-1.94;100.00
28927;BME280;16038;47.692;9.400;2023-01-28T02:12:15;96981.19;;;-1.95;100.00
28927;BME280;16038;47.692;9.400;2023-01-28T02:17:23;96988.63;;;-1.82;100.00
28927;BME280;16038;47.692;9.400;2023-01-28T02:19:56;96988.16;;;-1.94;100.00
28927;BME280;16038;47.692;9.400;2023-01-28T02:30:04;96991.06;;;-1.85;100.00
28927;BME280;16038;47.692;9.400;2023-01-28T02:32:37;96992.66;;;-1.84;100.00
28927;BME280;16038;47.692;9.400;2023-01-28T02:40:29;96990.03;;;-1.95;100.00
28927;BME280;16038;47.692;9.400;2023-01-28T02:42:58;96993.03;;;-2.01;100.00
28927;BME280;16038;47.692;9.400;2023-01-28T02:45:27;96990.03;;;-1.95;100.00
28927;BME280;16038;47.692;9.400;2023-01-28T02:48:14;96990.09;;;-2.00;100.00
28927;BME280;16038;47.692;9.400;2023-01-28T02:51:23;96985.50;;;-1.99;100.00
28927;BME280;16038;47.692;9.400;2023-01-28T02:59:01;96988.97;;;-1.94;100.00
28927;BME280;16038;47.692;9.400;2023-01-28T03:01:50;96985.75;;;-1.96;100.00
28927;BME280;16038;47.692;9.400;2023-01-28T03:04:32;96987.03;;;-1.88;100.00
28927;BME280;16038;47.692;9.400;2023-01-28T03:06:59;96984.31;;;-1.83;100.00
28927;BME280;16038;47.692;9.400;2023-01-28T03:09:28;96991.06;;;-1.85;100.00
28927;BME280;16038;47.692;9.400;2023-01-28T03:14:38;96997.22;;;-1.85;100.00
28927;BME280;16038;47.692;9.400;2023-01-28T03:20:26;96993.81;;;-1.96;100.00
28927;BME280;16038;47.692;9.400;2023-01-28T03:23:12;96986.03;;;-1.97;100.00
28927;BME280;16038;47.692;9.400;2023-01-28T03:25:58;96985.25;;;-1.98;100.00
28927;BME280;16038;47.692;9.400;2023-01-28T03:28:44;96987.91;;;-1.98;100.00
28927;BME280;16038;47.692;9.400;2023-01-28T03:31:29;96990.91;;;-2.04;100.00
28927;BME280;16038;47.692;9.400;2023-01-28T03:34:13;96984.16;;;-2.02;100.00
28927;BME280;16038;47.692;9.400;2023-01-28T03:36:57;96989.00;;;-1.99;100.00
28927;BME280;16038;47.692;9.400;2023-01-28T03:39:25;96988.19;;;-1.99;100.00
28927;BME280;16038;47.692;9.400;2023-01-28T03:41:58;96986.00;;;-1.92;100.00
28927;BME280;16038;47.692;9.400;2023-01-28T03:44:24;96993.44;;;-1.84;100.00
28927;BME280;16038;47.692;9.400;2023-01-28T03:47:08;96996.44;;;-1.85;100.00
28927;BME280;16038;47.692;9.400;2023-01-28T03:49:35;96996.19;;;-1.89;100.00
28927;BME280;16038;47.692;9.400;2023-01-28T03:52:01;96992.47;;;-1.98;100.00
28927;BME280;16038;47.692;9.400;2023-01-28T03:54:26;97005.56;;;-1.86;100.00
28927;BME280;16038;47.692;9.400;2023-01-28T03:56:52;97004.16;;;-1.79;100.00
28927;BME280;16038;47.692;9.400;2023-01-28T03:59:17;96999.44;;;-1.92;100.00
28927;BME280;16038;47.692;9.400;2023-01-28T04:01:42;97001.56;;;-1.89;100.00
28927;BME280;16038;47.692;9.400;2023-01-28T04:04:07;96999.47;;;-2.02;100.00
28927;BME280;16038;47.692;9.400;2023-01-28T04:06:46;97005.34;;;-1.95;100.00
28927;BME280;16038;47.692;9.400;2023-01-28T04:09:12;97006.69;;;-1.93;100.00
28927;BME280;16038;47.692;9.400;2023-01-28T04:11:37;97007.22;;;-1.90;100.00
28927;BME280;16038;47.692;9.400;2023-01-28T04:14:03;97006.06;;;-1.84;100.00
28927;BME280;16038;47.692;9.400;2023-01-28T04:16:28;97006.94;;;-1.89;100.00
28927;BME280;16038;47.692;9.400;2023-01-28T04:18:54;97004.75;;;-1.82;100.00
28927;BME280;16038;47.692;9.400;2023-01-28T04:21:19;97008.97;;;-1.76;100.00
28927;BME280;16038;47.692;9.400;2023-01-28T04:23:45;97004.53;;;-1.90;100.00
28927;BME280;16038;47.692;9.400;2023-01-28T04:26:10;97013.63;;;-1.86;100.00
28927;BME280;16038;47.692;9.400;2023-01-28T04:28:36;97011.19;;;-1.88;100.00
28927;BME280;16038;47.692;9.400;2023-01-28T04:31:01;97012.00;;;-1.87;100.00
28927;BME280;16038;47.692;9.400;2023-01-28T04:33:27;97016.84;;;-1.89;100.00
28927;BME280;16038;47.692;9.400;2023-01-28T04:35:52;97018.97;;;-1.86;100.00
28927;BME280;16038;47.692;9.400;2023-01-28T04:38:18;97030.47;;;-1.76;100.00
28927;BME280;16038;47.692;9.400;2023-01-28T04:40:43;97017.28;;;-1.72;100.00
28927;BME280;16038;47.692;9.400;2023-01-28T04:43:08;97028.25;;;-1.68;100.00
28927;BME280;16038;47.692;9.400;2023-01-28T04:45:33;97019.16;;;-1.73;100.00
28927;BME280;16038;47.692;9.400;2023-01-28T04:47:59;97025.19;;;-1.51;100.00
28927;BME280;16038;47.692;9.400;2023-01-28T04:50:24;97022.50;;;-1.51;100.00
28927;BME280;16038;47.692;9.400;2023-01-28T04:52:49;97025.31;;;-1.67;100.00
28927;BME280;16038;47.692;9.400;2023-01-28T04:55:14;97022.44;;;-1.81;100.00
28927;BME280;16038;47.692;9.400;2023-01-28T04:57:40;97022.25;;;-1.55;100.00
28927;BME280;16038;47.692;9.400;2023-01-28T05:00:05;97035.31;;;-1.78;100.00
28927;BME280;16038;47.692;9.400;2023-01-28T05:02:30;97031.53;;;-1.77;100.00
28927;BME280;16038;47.692;9.400;2023-01-28T05:04:56;97030.97;;;-1.74;100.00
28927;BME280;16038;47.692;9.400;2023-01-28T05:07:21;97027.78;;;-1.76;100.00
28927;BME280;16038;47.692;9.400;2023-01-28T05:09:46;97031.28;;;-1.80;100.00
28927;BME280;16038;47.692;9.400;2023-01-28T05:12:12;97037.53;;;-1.90;100.00
28927;BME280;16038;47.692;9.400;2023-01-28T05:14:37;97035.38;;;-1.88;100.00
28927;BME280;16038;47.692;9.400;2023-01-28T05:17:02;97035.16;;;-2.02;100.00
28927;BME280;16038;47.692;9.400;2023-01-28T05:19:27;97033.16;;;-1.76;100.00
28927;BME280;16038;47.692;9.400;2023-01-28T05:21:53;97040.44;;;-1.81;100.00
28927;BME280;16038;47.692;9.400;2023-01-28T05:24:18;97041.03;;;-1.95;100.00
28927;BME280;16038;47.692;9.400;2023-01-28T05:26:45;97049.63;;;-1.93;100.00
28927;BME280;16038;47.692;9.400;2023-01-28T05:29:10;97045.69;;;-1.66;100.00
28927;BME280;16038;47.692;9.400;2023-01-28T05:31:36;97050.31;;;-1.71;100.00
28927;BME280;16038;47.692;9.400;2023-01-28T05:34:01;97051.06;;;-1.66;100.00
28927;BME280;16038;47.692;9.400;2023-01-28T05:36:26;97044.22;;;-1.87;100.00
28927;BME280;16038;47.692;9.400;2023-01-28T05:38:51;97053.34;;;-1.83;100.00
28927;BME280;16038;47.692;9.400;2023-01-28T05:41:17;97047.63;;;-1.77;100.00
28927;BME280;16038;47.692;9.400;2023-01-28T05:43:42;97049.09;;;-1.95;100.00
28927;BME280;16038;47.692;9.400;2023-01-28T05:46:07;97055.81;;;-1.97;100.00
28927;BME280;16038;47.692;9.400;2023-01-28T05:48:33;97052.06;;;-1.96;100.00
28927;BME280;16038;47.692;9.400;2023-01-28T05:50:58;97061.69;;;-1.90;100.00
28927;BME280;16038;47.692;9.400;2023-01-28T05:53:23;97046.13;;;-1.93;100.00
28927;BME280;16038;47.692;9.400;2023-01-28T05:55:49;97061.47;;;-1.99;100.00
28927;BME280;16038;47.692;9.400;2023-01-28T05:58:15;97059.00;;;-1.90;100.00
28927;BME280;16038;47.692;9.400;2023-01-28T06:00:40;97058.75;;;-1.94;100.00
28927;BME280;16038;47.692;9.400;2023-01-28T06:03:05;97063.84;;;-1.87;100.00
28927;BME280;16038;47.692;9.400;2023-01-28T06:05:31;97061.44;;;-1.94;100.00
28927;BME280;16038;47.692;9.400;2023-01-28T06:07:56;97066.00;;;-1.89;100.00
28927;BME280;16038;47.692;9.400;2023-01-28T06:10:21;97063.34;;;-1.94;100.00
28927;BME280;16038;47.692;9.400;2023-01-28T06:12:47;97063.50;;;-1.80;100.00
28927;BME280;16038;47.692;9.400;2023-01-28T06:15:12;97067.09;;;-2.00;100.00
28927;BME280;16038;47.692;9.400;2023-01-28T06:17:38;97069.53;;;-1.99;100.00
28927;BME280;16038;47.692;9.400;2023-01-28T06:20:04;97079.38;;;-1.84;100.00
28927;BME280;16038;47.692;9.400;2023-01-28T06:22:29;97072.13;;;-1.78;100.00
28927;BME280;16038;47.692;9.400;2023-01-28T06:24:55;97077.44;;;-1.73;100.00
28927;BME280;16038;47.692;9.400;2023-01-28T06:27:20;97070.78;;;-1.86;100.00
28927;BME280;16038;47.692;9.400;2023-01-28T06:29:45;97074.88;;;-1.94;100.00
28927;BME280;16038;47.692;9.400;2023-01-28T06:32:10;97086.91;;;-1.91;100.00
28927;BME280;16038;47.692;9.400;2023-01-28T06:34:36;97075.94;;;-1.95;100.00
28927;BME280;16038;47.692;9.400;2023-01-28T06:37:02;97085.22;;;-1.71;100.00
28927;BME280;16038;47.692;9.400;2023-01-28T06:39:28;97089.50;;;-1.65;100.00
28927;BME280;16038;47.692;9.400;2023-01-28T06:41:55;97090.16;;;-1.89;100.00
28927;BME280;16038;47.692;9.400;2023-01-28T06:44:21;97093.94;;;-1.95;100.00
28927;BME280;16038;47.692;9.400;2023-01-28T06:46:47;97084.75;;;-1.84;100.00
28927;BME280;16038;47.692;9.400;2023-01-28T06:49:12;97084.78;;;-1.89;100.00
28927;BME280;16038;47.692;9.400;2023-01-28T06:51:38;97088.28;;;-1.88;100.00
28927;BME280;16038;47.692;9.400;2023-01-28T06:54:03;97094.94;;;-1.81;100.00
28927;BME280;16038;47.692;9.400;2023-01-28T06:56:28;97089.59;;;-1.91;100.00
28927;BME280;16038;47.692;9.400;2023-01-28T06:58:54;97097.97;;;-1.93;100.00
28927;BME280;16038;47.692;9.400;2023-01-28T07:01:19;97092.13;;;-2.05;100.00
28927;BME280;16038;47.692;9.400;2023-01-28T07:03:44;97101.22;;;-2.06;100.00
28927;BME280;16038;47.692;9.400;2023-01-28T07:06:09;97098.78;;;-2.02;100.00
28927;BME280;16038;47.692;9.400;2023-01-28T07:08:35;97101.75;;;-2.09;100.00
28927;BME280;16038;47.692;9.400;2023-01-28T07:11:01;97096.66;;;-2.05;100.00
28927;BME280;16038;47.692;9.400;2023-01-28T07:13:28;97107.09;;;-1.99;100.00
28927;BME280;16038;47.692;9.400;2023-01-28T07:15:53;97098.81;;;-2.07;100.00
28927;BME280;16038;47.692;9.400;2023-01-28T07:18:18;97106.06;;;-2.08;100.00
28927;BME280;16038;47.692;9.400;2023-01-28T07:20:43;97105.75;;;-1.96;100.00
28927;BME280;16038;47.692;9.400;2023-01-28T07:23:09;97110.84;;;-1.95;100.00
28927;BME280;16038;47.692;9.400;2023-01-28T07:25:35;97106.28;;;-1.94;100.00
28927;BME280;16038;47.692;9.400;2023-01-28T07:28:00;97110.28;;;-1.86;100.00
28927;BME280;16038;47.692;9.400;2023-01-28T07:30:25;97111.09;;;-1.91;100.00
28927;BME280;16038;47.692;9.400;2023-01-28T07:32:54;97111.13;;;-1.96;100.00
28927;BME280;16038;47.692;9.400;2023-01-28T07:35:19;97119.47;;;-2.03;100.00
28927;BME280;16038;47.692;9.400;2023-01-28T07:37:58;97122.41;;;-1.94;100.00
28927;BME280;16038;47.692;9.400;2023-01-28T07:40:24;97118.88;;;-1.89;100.00
28927;BME280;16038;47.692;9.400;2023-01-28T07:42:49;97114.78;;;-1.77;100.00
28927;BME280;16038;47.692;9.400;2023-01-28T07:45:15;97125.63;;;-1.42;100.00
28927;BME280;16038;47.692;9.400;2023-01-28T07:47:41;97130.38;;;-0.94;100.00
28927;BME280;16038;47.692;9.400;2023-01-28T07:50:07;97128.03;;;-0.72;100.00
28927;BME280;16038;47.692;9.400;2023-01-28T07:52:32;97127.06;;;-0.04;100.00
28927;BME280;16038;47.692;9.400;2023-01-28T07:55:03;97142.84;;;-0.74;100.00
28927;BME280;16038;47.692;9.400;2023-01-28T07:57:28;97131.53;;;-0.71;100.00
28927;BME280;16038;47.692;9.400;2023-01-28T07:59:54;97138.97;;;-0.10;100.00
28927;BME280;16038;47.692;9.400;2023-01-28T08:02:19;97143.81;;;0.36;96.99
28927;BME280;16038;47.692;9.400;2023-01-28T08:04:45;97148.69;;;0.34;98.88
28927;BME280;16038;47.692;9.400;2023-01-28T08:07:10;97138.72;;;0.35;96.93
28927;BME280;16038;47.692;9.400;2023-01-28T08:09:36;97153.47;;;-0.06;96.79
28927;BME280;16038;47.692;9.400;2023-01-28T08:12:01;97155.03;;;0.44;96.90
28927;BME280;16038;47.692;9.400;2023-01-28T08:14:27;97174.38;;;0.27;96.27
28927;BME280;16038;47.692;9.400;2023-01-28T08:16:52;97175.59;;;-0.38;98.39
28927;BME280;16038;47.692;9.400;2023-01-28T08:19:18;97185.06;;;-0.41;100.00
28927;BME280;16038;47.692;9.400;2023-01-28T08:21:48;97184.47;;;-1.01;100.00
28927;BME280;16038;47.692;9.400;2023-01-28T08:24:13;97183.47;;;-1.16;100.00
28927;BME280;16038;47.692;9.400;2023-01-28T08:26:39;97187.63;;;-0.94;100.00
28927;BME280;16038;47.692;9.400;2023-01-28T08:29:04;97191.56;;;-1.21;100.00
28927;BME280;16038;47.692;9.400;2023-01-28T08:31:29;97194.34;;;-1.31;99.90
28927;BME280;16038;47.692;9.400;2023-01-28T08:33:55;97189.72;;;-1.25;100.00
28927;BME280;16038;47.692;9.400;2023-01-28T08:36:20;97203.19;;;-1.30;100.00
28927;BME280;16038;47.692;9.400;2023-01-28T08:38:46;97202.94;;;-1.34;100.00
28927;BME280;16038;47.692;9.400;2023-01-28T08:41:11;97200.69;;;-1.11;100.00
28927;BME280;16038;47.692;9.400;2023-01-28T08:43:36;97200.22;;;-1.29;100.00
28927;BME280;16038;47.692;9.400;2023-01-28T08:46:04;97204.81;;;-1.29;100.00
28927;BME280;16038;47.692;9.400;2023-01-28T08:48:29;97212.09;;;-1.35;100.00
28927;BME280;16038;47.692;9.400;2023-01-28T08:50:54;97208.31;;;-1.34;100.00
28927;BME280;16038;47.692;9.400;2023-01-28T08:53:22;97204.09;;;-1.50;100.00
28927;BME280;16038;47.692;9.400;2023-01-28T08:55:47;97210.25;;;-1.45;100.00
28927;BME280;16038;47.692;9.400;2023-01-28T08:58:14;97201.69;;;-1.52;100.00
28927;BME280;16038;47.692;9.400;2023-01-28T09:00:40;97201.41;;;-1.50;97.92
28927;BME280;16038;47.692;9.400;2023-01-28T09:03:05;97203.59;;;-1.52;96.85
28927;BME280;16038;47.692;9.400;2023-01-28T09:05:30;97200.88;;;-1.47;97.33
28927;BME280;16038;47.692;9.400;2023-01-28T09:08:01;97211.25;;;-1.30;96.70
28927;BME280;16038;47.692;9.400;2023-01-28T09:10:27;97218.00;;;-1.33;98.07
28927;BME280;16038;47.692;9.400;2023-01-28T09:12:52;97204.88;;;-1.45;97.85
28927;BME280;16038;47.692;9.400;2023-01-28T09:15:17;97210.09;;;-1.19;94.77
28927;BME280;16038;47.692;9.400;2023-01-28T09:17:43;97212.63;;;-1.33;95.04
28927;BME280;16038;47.692;9.400;2023-01-28T09:20:08;97205.69;;;-1.44;94.20
28927;BME280;16038;47.692;9.400;2023-01-28T09:22:34;97216.34;;;-1.24;93.12
28927;BME280;16038;47.692;9.400;2023-01-28T09:25:00;97212.91;;;-1.35;91.63
28927;BME280;16038;47.692;9.400;2023-01-28T09:27:25;97213.16;;;-1.36;92.87
28927;BME280;16038;47.692;9.400;2023-01-28T09:29:50;97222.59;;;-1.39;92.00
28927;BME280;16038;47.692;9.400;2023-01-28T09:32:15;97228.16;;;-1.25;93.12
28927;BME280;16038;47.692;9.400;2023-01-28T09:34:41;97222.81;;;-1.30;92.81
28927;BME280;16038;47.692;9.400;2023-01-28T09:37:08;97224.91;;;-1.22;93.36
28927;BME280;16038;47.692;9.400;2023-01-28T09:39:33;97233.81;;;-0.82;92.52
28927;BME280;16038;47.692;9.400;2023-01-28T09:47:02;97232.34;;;0.00;88.22
28927;BME280;16038;47.692;9.400;2023-01-28T09:49:43;97225.84;;;0.25;87.04
28927;BME280;16038;47.692;9.400;2023-01-28T09:52:14;97232.16;;;0.15;86.40
28927;BME280;16038;47.692;9.400;2023-01-28T09:54:42;97238.31;;;-0.08;87.43
28927;BME280;16038;47.692;9.400;2023-01-28T09:57:25;97244.38;;;-0.22;88.27
28927;BME280;16038;47.692;9.400;2023-01-28T09:59:51;97240.69;;;-0.02;86.90
28927;BME280;16038;47.692;9.400;2023-01-28T10:05:09;97230.25;;;-0.08;85.60
28927;BME280;16038;47.692;9.400;2023-01-28T10:10:10;97240.31;;;-0.19;87.33
28927;BME280;16038;47.692;9.400;2023-01-28T10:12:58;97221.94;;;-0.41;88.96
28927;BME280;16038;47.692;9.400;2023-01-28T10:18:09;97223.22;;;-0.68;88.19
28927;BME280;16038;47.692;9.400;2023-01-28T10:20:35;97224.03;;;-0.67;88.41
28927;BME280;16038;47.692;9.400;2023-01-28T10:23:04;97220.91;;;-0.85;89.01
28927;BME280;16038;47.692;9.400;2023-01-28T10:25:32;97228.91;;;-0.74;89.19
28927;BME280;16038;47.692;9.400;2023-01-28T10:27:59;97226.94;;;-0.64;89.80
28927;BME280;16038;47.692;9.400;2023-01-28T10:30:26;97223.31;;;-0.49;89.77
28927;BME280;16038;47.692;9.400;2023-01-28T10:32:55;97232.66;;;-0.36;88.09
28927;BME280;16038;47.692;9.400;2023-01-28T10:35:23;97223.06;;;-0.47;87.88
28927;BME280;16038;47.692;9.400;2023-01-28T10:37:49;97228.22;;;-0.22;87.11
28927;BME280;16038;47.692;9.400;2023-01-28T10:40:17;97222.25;;;-0.18;87.77
28927;BME280;16038;47.692;9.400;2023-01-28T10:42:42;97214.66;;;-0.11;86.35
28927;BME280;16038;47.692;9.400;2023-01-28T10:45:42;97220.25;;;-0.32;86.08
28927;BME280;16038;47.692;9.400;2023-01-28T10:50:31;97222.72;;;-0.11;86.35
28927;BME280;16038;47.692;9.400;2023-01-28T10:52:58;97220.44;;;-0.23;87.88
28927;BME280;16038;47.692;9.400;2023-01-28T10:55:25;97214.00;;;-0.27;88.08
28927;BME280;16038;47.692;9.400;2023-01-28T10:57:51;97228.63;;;-0.39;87.53
28927;BME280;16038;47.692;9.400;2023-01-28T11:00:25;97222.22;;;-0.43;88.25
28927;BME280;16038;47.692;9.400;2023-01-28T11:02:50;97222.50;;;-0.44;89.04
28927;BME280;16038;47.692;9.400;2023-01-28T11:07:41;97217.34;;;-0.41;87.99
28927;BME280;16038;47.692;9.400;2023-01-28T11:12:55;97220.56;;;-0.39;89.01
28927;BME280;16038;47.692;9.400;2023-01-28T11:15:20;97221.03;;;-0.61;89.31
28927;BME280;16038;47.692;9.400;2023-01-28T11:17:46;97233.09;;;-0.58;90.03
28927;BME280;16038;47.692;9.400;2023-01-28T11:20:21;97225.53;;;-0.56;89.87
28927;BME280;16038;47.692;9.400;2023-01-28T11:22:48;97226.16;;;-0.64;89.86
28927;BME280;16038;47.692;9.400;2023-01-28T11:27:45;97229.59;;;-0.59;90.69
28927;BME280;16038;47.692;9.400;2023-01-28T11:32:52;97237.44;;;-0.62;90.43
28927;BME280;16038;47.692;9.400;2023-01-28T11:35:27;97231.75;;;-0.55;89.59
28927;BME280;16038;47.692;9.400;2023-01-28T11:37:54;97221.25;;;-0.57;91.05
28927;BME280;16038;47.692;9.400;2023-01-28T11:40:20;97228.56;;;-0.63;90.90
28927;BME280;16038;47.692;9.400;2023-01-28T11:42:51;97223.47;;;-0.64;91.41
28927;BME280;16038;47.692;9.400;2023-01-28T11:45:18;97216.03;;;-0.43;90.89
28927;BME280;16038;47.692;9.400;2023-01-28T11:58:00;97211.56;;;-0.58;92.08
28927;BME280;16038;47.692;9.400;2023-01-28T12:05:50;97212.88;;;-0.50;91.21
28927;BME280;16038;47.692;9.400;2023-01-28T12:10:47;97207.00;;;-0.57;92.50
28927;BME280;16038;47.692;9.400;2023-01-28T12:41:40;97205.91;;;-0.27;95.00
28927;BME280;16038;47.692;9.400;2023-01-28T12:44:11;97210.31;;;-0.36;93.90
28927;BME280;16038;47.692;9.400;2023-01-28T12:46:52;97201.69;;;-0.33;93.98
28927;BME280;16038;47.692;9.400;2023-01-28T12:54:39;97206.00;;;-0.08;95.59
28927;BME280;16038;47.692;9.400;2023-01-28T12:57:08;97204.97;;;-0.42;94.14
28927;BME280;16038;47.692;9.400;2023-01-28T12:59:38;97201.09;;;-0.60;93.96
28927;BME280;16038;47.692;9.400;2023-01-28T13:07:10;97211.28;;;-0.56;94.30
28927;BME280;16038;47.692;9.400;2023-01-28T13:09:38;97203.25;;;-0.62;93.09
28927;BME280;16038;47.692;9.400;2023-01-28T13:12:08;97214.78;;;-0.56;94.09
28927;BME280;16038;47.692;9.400;2023-01-28T13:14:34;97214.16;;;-0.43;95.46
28927;BME280;16038;47.692;9.400;2023-01-28T13:17:22;97211.06;;;-0.31;95.34
28927;BME280;16038;47.692;9.400;2023-01-28T13:19:48;97213.25;;;-0.33;93.66
28927;BME280;16038;47.692;9.400;2023-01-28T13:22:33;97213.38;;;-0.48;92.53
28927;BME280;16038;47.692;9.400;2023-01-28T13:27:58;97224.88;;;-0.37;93.41
28927;BME280;16038;47.692;9.400;2023-01-28T13:31:07;97221.47;;;-0.48;93.25
28927;BME280;16038;47.692;9.400;2023-01-28T13:33:29;97219.59;;;-0.53;93.16
28927;BME280;16038;47.692;9.400;2023-01-28T13:35:55;97214.78;;;-0.56;92.70
28927;BME280;16038;47.692;9.400;2023-01-28T13:38:21;97220.13;;;-0.51;91.09
28927;BME280;16038;47.692;9.400;2023-01-28T13:40:57;97213.72;;;-0.55;90.64
28927;BME280;16038;47.692;9.400;2023-01-28T13:45:57;97230.13;;;-0.56;89.34
28927;BME280;16038;47.692;9.400;2023-01-28T13:48:26;97239.81;;;-0.55;88.90
28927;BME280;16038;47.692;9.400;2023-01-28T13:50:54;97237.66;;;-0.53;89.36
28927;BME280;16038;47.692;9.400;2023-01-28T13:53:40;97234.63;;;-0.47;88.96
28927;BME280;16038;47.692;9.400;2023-01-28T13:56:14;97243.78;;;-0.48;88.25
28927;BME280;16038;47.692;9.400;2023-01-28T13:59:29;97239.72;;;-0.45;88.11
28927;BME280;16038;47.692;9.400;2023-01-28T14:03:59;97255.34;;;-0.47;89.97
28927;BME280;16038;47.692;9.400;2023-01-28T14:19:16;97256.03;;;-0.66;96.97
28927;BME280;16038;47.692;9.400;2023-01-28T14:21:44;97259.78;;;-0.67;97.77
28927;BME280;16038;47.692;9.400;2023-01-28T14:24:16;97263.59;;;-0.68;97.46
28927;BME280;16038;47.692;9.400;2023-01-28T14:26:48;97272.69;;;-0.64;97.62
28927;BME280;16038;47.692;9.400;2023-01-28T14:31:48;97266.72;;;-0.55;97.83
28927;BME280;16038;47.692;9.400;2023-01-28T14:36:46;97270.53;;;-0.62;97.70
28927;BME280;16038;47.692;9.400;2023-01-28T14:39:19;97273.25;;;-0.67;97.40
28927;BME280;16038;47.692;9.400;2023-01-28T14:41:46;97267.28;;;-0.59;97.44
28927;BME280;16038;47.692;9.400;2023-01-28T14:44:17;97263.03;;;-0.65;96.83
28927;BME280;16038;47.692;9.400;2023-01-28T14:59:46;97279.19;;;-0.70;97.94
28927;BME280;16038;47.692;9.400;2023-01-28T15:02:20;97285.63;;;-0.66;97.89
28927;BME280;16038;47.692;9.400;2023-01-28T15:04:46;97288.88;;;-0.69;97.55
28927;BME280;16038;47.692;9.400;2023-01-28T15:07:19;97297.75;;;-0.68;98.22
28927;BME280;16038;47.692;9.400;2023-01-28T15:09:45;97296.63;;;-0.62;98.78
28927;BME280;16038;47.692;9.400;2023-01-28T15:12:11;97301.09;;;-0.47;97.65
28927;BME280;16038;47.692;9.400;2023-01-28T15:14:37;97304.16;;;-0.59;98.89
28927;BME280;16038;47.692;9.400;2023-01-28T15:17:04;97302.78;;;-0.56;99.15
28927;BME280;16038;47.692;9.400;2023-01-28T15:19:31;97304.16;;;-0.59;100.00
28927;BME280;16038;47.692;9.400;2023-01-28T15:21:57;97302.03;;;-0.67;100.00
28927;BME280;16038;47.692;9.400;2023-01-28T15:24:24;97299.09;;;-0.71;100.00
28927;BME280;16038;47.692;9.400;2023-01-28T15:26:49;97306.91;;;-0.69;100.00
28927;BME280;16038;47.692;9.400;2023-01-28T15:29:32;97302.59;;;-0.70;100.00
28927;BME280;16038;47.692;9.400;2023-01-28T15:31:57;97311.47;;;-0.70;100.00